createdAt,value
2023-01-20T00:02:05.166Z,13.43
2023-01-20T00:04:33.949Z,14.25
2023-01-20T00:07:04.771Z,13.38
2023-01-20T00:09:37.040Z,13.88
2023-01-20T00:12:10.417Z,13.10
2023-01-20T00:14:39.177Z,13.45
2023-01-20T00:17:07.757Z,12.70
2023-01-20T00:19:36.477Z,13.82
2023-01-20T00:22:07.072Z,13.35
2023-01-20T00:24:38.370Z,12.77
2023-01-20T00:27:08.481Z,12.02
2023-01-20T00:29:38.364Z,13.07
2023-01-20T00:32:09.647Z,12.02
2023-01-20T00:34:40.544Z,11.65
2023-01-20T00:37:09.170Z,12.50
2023-01-20T00:39:37.567Z,11.75
2023-01-20T00:42:07.739Z,11.68
2023-01-20T00:44:39.467Z,11.82
2023-01-20T00:47:08.421Z,10.52
2023-01-20T00:49:37.096Z,10.65
2023-01-20T00:52:09.020Z,10.88
2023-01-20T00:54:37.527Z,10.57
2023-01-20T00:57:10.052Z,9.60
2023-01-20T00:59:38.900Z,10.70
2023-01-20T01:02:07.348Z,9.80
2023-01-20T01:04:36.280Z,9.75
2023-01-20T01:07:07.808Z,9.55
2023-01-20T01:09:36.337Z,9.27
2023-01-20T01:12:05.205Z,10.30
2023-01-20T01:14:35.857Z,9.35
2023-01-20T01:17:04.495Z,8.68
2023-01-20T01:19:36.374Z,9.55
2023-01-20T01:22:04.986Z,8.60
2023-01-20T01:24:33.612Z,8.25
2023-01-20T01:27:02.111Z,8.80
2023-01-20T01:29:35.526Z,8.45
2023-01-20T01:32:07.225Z,8.30
2023-01-20T01:34:36.615Z,7.80
2023-01-20T01:37:05.005Z,8.20
2023-01-20T01:39:33.491Z,9.05
2023-01-20T01:42:02.370Z,8.25
2023-01-20T01:44:30.897Z,9.00
2023-01-20T01:47:01.076Z,7.43
2023-01-20T01:49:34.196Z,8.05
2023-01-20T01:52:05.761Z,8.38
2023-01-20T01:54:38.227Z,8.00
2023-01-20T01:57:08.833Z,8.27
2023-01-20T01:59:39.249Z,8.35
2023-01-20T02:02:09.251Z,7.32
2023-01-20T02:04:41.354Z,8.90
2023-01-20T02:07:15.863Z,8.38
2023-01-20T02:09:46.795Z,8.13
2023-01-20T02:12:19.292Z,7.72
2023-01-20T02:14:53.877Z,8.15
2023-01-20T02:17:30.199Z,8.13
2023-01-20T02:20:21.420Z,7.60
2023-01-20T02:22:56.789Z,7.82
2023-01-20T02:25:46.840Z,8.20
2023-01-20T02:28:54.265Z,7.82
2023-01-20T02:32:12.486Z,7.85
2023-01-20T02:34:51.079Z,7.45
2023-01-20T02:37:24.835Z,7.53
2023-01-20T02:40:06.146Z,8.20
2023-01-20T02:42:39.704Z,8.35
2023-01-20T02:45:17.930Z,8.13
2023-01-20T02:47:54.441Z,8.23
2023-01-20T02:50:33.201Z,8.82
2023-01-20T02:53:06.907Z,7.68
2023-01-20T02:55:40.519Z,8.13
2023-01-20T02:58:14.086Z,9.27
2023-01-20T03:00:50.481Z,9.13
2023-01-20T03:03:25.351Z,8.60
2023-01-20T03:05:59.037Z,8.90
2023-01-20T03:08:32.087Z,8.82
2023-01-20T03:11:05.600Z,8.77
2023-01-20T03:13:39.250Z,8.90
2023-01-20T03:16:15.739Z,9.07
2023-01-20T03:18:44.408Z,9.00
2023-01-20T03:21:15.212Z,7.90
2023-01-20T03:23:47.793Z,8.50
2023-01-20T03:26:19.522Z,9.27
2023-01-20T03:28:49.833Z,8.10
2023-01-20T03:31:22.698Z,8.15
2023-01-20T03:33:54.987Z,8.20
2023-01-20T03:36:28.237Z,8.07
2023-01-20T03:38:58.201Z,8.13
2023-01-20T03:41:35.532Z,7.97
2023-01-20T03:44:12.938Z,8.27
2023-01-20T03:46:47.285Z,8.60
2023-01-20T03:49:25.250Z,8.32
2023-01-20T03:52:03.902Z,8.73
2023-01-20T03:54:39.950Z,9.65
2023-01-20T03:57:13.443Z,8.90
2023-01-20T03:59:45.107Z,8.38
2023-01-20T04:02:14.017Z,9.27
2023-01-20T04:04:47.801Z,9.35
2023-01-20T04:09:53.220Z,9.35
2023-01-20T04:12:21.969Z,10.30
2023-01-20T04:14:53.573Z,9.98
2023-01-20T04:17:31.234Z,8.60
2023-01-20T04:20:09.467Z,9.95
2023-01-20T04:22:50.207Z,9.88
2023-01-20T04:25:23.848Z,8.98
2023-01-20T04:27:52.524Z,9.60
2023-01-20T04:30:21.194Z,9.38
2023-01-20T04:32:50.317Z,9.75
2023-01-20T04:35:21.237Z,9.27
2023-01-20T04:37:54.149Z,10.30
2023-01-20T04:40:25.741Z,9.90
2023-01-20T04:42:56.440Z,10.80
2023-01-20T04:45:29.498Z,10.32
2023-01-20T04:47:58.035Z,9.65
2023-01-20T04:50:26.377Z,9.15
2023-01-20T04:52:59.900Z,9.75
2023-01-20T04:55:29.174Z,9.98
2023-01-20T04:57:57.595Z,10.82
2023-01-20T05:00:26.185Z,10.00
2023-01-20T05:03:00.433Z,10.95
2023-01-20T05:05:29.095Z,10.50
2023-01-20T05:07:59.824Z,10.55
2023-01-20T05:10:28.210Z,11.43
2023-01-20T05:12:56.635Z,11.50
2023-01-20T05:15:25.407Z,12.02
2023-01-20T05:17:53.766Z,11.50
2023-01-20T05:20:22.303Z,10.70
2023-01-20T05:22:51.110Z,11.00
2023-01-20T05:25:20.932Z,11.52
2023-01-20T05:27:49.657Z,10.05
2023-01-20T05:30:18.609Z,10.55
2023-01-20T05:32:47.176Z,11.48
2023-01-20T05:35:21.864Z,9.77
2023-01-20T05:40:23.993Z,10.43
2023-01-20T05:43:00.405Z,9.88
2023-01-20T05:45:29.170Z,9.40
2023-01-20T05:47:58.219Z,9.43
2023-01-20T05:50:27.881Z,10.65
2023-01-20T05:52:57.734Z,9.85
2023-01-20T05:55:31.227Z,10.88
2023-01-20T05:58:05.336Z,9.70
2023-01-20T06:00:35.508Z,9.38
2023-01-20T06:03:05.267Z,9.57
2023-01-20T06:05:34.067Z,10.88
2023-01-20T06:08:09.299Z,10.23
2023-01-20T06:10:39.418Z,9.07
2023-01-20T06:13:13.902Z,9.65
2023-01-20T06:15:45.125Z,9.68
2023-01-20T06:18:13.858Z,10.70
2023-01-20T06:20:53.832Z,10.30
2023-01-20T06:23:26.276Z,9.57
2023-01-20T06:26:01.489Z,10.20
2023-01-20T06:28:35.809Z,9.82
2023-01-20T06:31:18.444Z,10.13
2023-01-20T06:33:54.999Z,10.77
2023-01-20T06:36:26.884Z,10.73
2023-01-20T06:38:58.938Z,10.13
2023-01-20T06:41:32.374Z,9.95
2023-01-20T06:44:01.433Z,11.52
2023-01-20T06:46:45.231Z,10.93
2023-01-20T06:49:15.534Z,11.95
2023-01-20T06:51:44.463Z,12.30
2023-01-20T06:54:18.442Z,12.05
2023-01-20T06:56:48.586Z,11.02
2023-01-20T06:59:18.123Z,12.03
2023-01-20T07:01:47.096Z,12.30
2023-01-20T07:04:23.801Z,12.10
2023-01-20T07:06:56.490Z,12.35
2023-01-20T07:09:26.032Z,12.48
2023-01-20T07:14:26.753Z,12.63
2023-01-20T07:16:55.588Z,14.25
2023-01-20T07:19:26.486Z,14.23
2023-01-20T07:21:56.161Z,14.00
2023-01-20T07:24:24.711Z,12.85
2023-01-20T07:26:54.060Z,12.43
2023-01-20T07:29:24.093Z,12.93
2023-01-20T07:31:53.328Z,11.45
2023-01-20T07:34:21.917Z,10.80
2023-01-20T07:36:53.114Z,9.90
2023-01-20T07:39:21.667Z,9.38
2023-01-20T07:41:50.085Z,9.65
2023-01-20T07:44:18.973Z,10.68
2023-01-20T07:46:48.864Z,9.27
2023-01-20T07:49:17.206Z,9.57
2023-01-20T07:51:45.590Z,9.13
2023-01-20T07:54:14.074Z,9.05
2023-01-20T07:56:42.464Z,10.07
2023-01-20T07:59:12.459Z,9.50
2023-01-20T08:01:41.013Z,8.48
2023-01-20T08:04:10.962Z,8.88
2023-01-20T08:06:39.394Z,9.27
2023-01-20T08:09:12.182Z,8.30
2023-01-20T08:11:40.761Z,8.88
2023-01-20T08:14:09.174Z,9.52
2023-01-20T08:16:38.152Z,8.70
2023-01-20T08:19:06.603Z,9.00
2023-01-20T08:21:36.452Z,9.10
2023-01-20T08:24:06.764Z,9.63
2023-01-20T08:26:35.814Z,8.02
2023-01-20T08:29:05.867Z,9.10
2023-01-20T08:31:34.573Z,10.18
2023-01-20T08:34:03.601Z,10.00
2023-01-20T08:36:34.743Z,9.93
2023-01-20T08:39:06.757Z,11.07
2023-01-20T08:41:37.104Z,10.20
2023-01-20T08:44:07.698Z,10.65
2023-01-20T08:46:40.476Z,10.50
2023-01-20T08:49:11.101Z,9.93
2023-01-20T08:51:40.242Z,9.40
2023-01-20T08:54:10.581Z,9.43
2023-01-20T08:56:38.920Z,9.68
2023-01-20T08:59:08.061Z,9.77
2023-01-20T09:01:38.176Z,10.15
2023-01-20T09:04:07.848Z,9.95
2023-01-20T09:06:41.427Z,9.43
2023-01-20T09:09:11.557Z,9.10
2023-01-20T09:11:50.944Z,9.13
2023-01-20T09:14:20.006Z,9.80
2023-01-20T09:16:48.766Z,9.85
2023-01-20T09:19:17.731Z,10.40
2023-01-20T09:21:46.591Z,10.57
2023-01-20T09:24:16.540Z,9.07
2023-01-20T09:26:45.590Z,10.02
2023-01-20T09:29:16.231Z,9.55
2023-01-20T09:31:47.046Z,10.07
2023-01-20T09:34:19.911Z,10.48
2023-01-20T09:36:51.817Z,9.52
2023-01-20T09:42:41.067Z,9.25
2023-01-20T09:45:25.446Z,8.35
2023-01-20T09:48:03.057Z,9.68
2023-01-20T09:50:59.519Z,9.73
2023-01-20T09:53:42.590Z,10.35
2023-01-20T09:56:16.706Z,10.25
2023-01-20T09:58:51.533Z,11.07
2023-01-20T10:01:31.039Z,9.45
2023-01-20T10:04:07.789Z,10.90
2023-01-20T10:06:41.998Z,10.13
2023-01-20T10:09:21.498Z,11.07
2023-01-20T10:11:56.891Z,10.13
2023-01-20T10:14:31.003Z,10.70
2023-01-20T10:17:05.886Z,9.57
2023-01-20T10:19:38.755Z,10.43
2023-01-20T10:22:14.153Z,11.07
2023-01-20T10:24:49.505Z,11.20
2023-01-20T10:27:23.777Z,10.35
2023-01-20T10:29:58.593Z,10.40
2023-01-20T10:32:37.003Z,10.10
2023-01-20T10:35:15.925Z,11.02
2023-01-20T10:37:44.890Z,10.50
2023-01-20T10:40:25.620Z,10.77
2023-01-20T10:42:59.767Z,10.32
2023-01-20T10:45:37.620Z,11.82
2023-01-20T10:48:18.616Z,11.75
2023-01-20T10:50:56.940Z,12.15
2023-01-20T10:53:52.252Z,11.77
2023-01-20T10:56:35.633Z,11.35
2023-01-20T10:59:11.277Z,11.00
2023-01-20T11:01:40.028Z,11.45
2023-01-20T11:04:20.194Z,11.73
2023-01-20T11:06:53.868Z,11.70
2023-01-20T11:09:28.037Z,10.57
2023-01-20T11:11:58.896Z,10.73
2023-01-20T11:14:28.897Z,10.27
2023-01-20T11:17:04.632Z,11.25
2023-01-20T11:19:48.965Z,10.75
2023-01-20T11:22:21.406Z,11.02
2023-01-20T11:24:50.114Z,10.68
2023-01-20T11:27:22.433Z,11.07
2023-01-20T11:29:58.153Z,10.93
2023-01-20T11:32:32.673Z,10.38
2023-01-20T11:35:02.088Z,9.40
2023-01-20T11:37:38.134Z,10.10
2023-01-20T11:40:21.130Z,10.65
2023-01-20T11:42:51.243Z,10.20
2023-01-20T11:45:32.794Z,11.32
2023-01-20T11:48:04.964Z,11.38
2023-01-20T11:50:36.194Z,10.63
2023-01-20T11:53:32.022Z,10.75
2023-01-20T11:56:03.309Z,11.32
2023-01-20T11:58:34.234Z,12.23
2023-01-20T12:01:06.899Z,11.00
2023-01-20T12:04:04.376Z,11.48
2023-01-20T12:06:36.516Z,12.68
2023-01-20T12:11:42.005Z,13.25
2023-01-20T12:14:23.198Z,13.90
2023-01-20T12:17:20.419Z,14.02
2023-01-20T12:20:07.630Z,13.95
2023-01-20T12:22:45.597Z,12.88
2023-01-20T12:25:21.004Z,13.30
2023-01-20T12:27:53.833Z,13.93
2023-01-20T12:30:41.715Z,13.55
2023-01-20T12:33:21.599Z,12.63
2023-01-20T12:36:11.660Z,14.98
2023-01-20T12:38:53.692Z,13.02
2023-01-20T12:41:41.898Z,12.95
2023-01-20T12:44:20.681Z,12.90
2023-01-20T12:46:52.675Z,12.32
2023-01-20T12:49:36.145Z,12.35
2023-01-20T12:52:21.170Z,10.45
2023-01-20T12:55:13.957Z,11.43
2023-01-20T12:58:00.056Z,11.77
2023-01-20T13:00:41.647Z,11.30
2023-01-20T13:03:41.432Z,10.77
2023-01-20T13:06:29.603Z,11.00
2023-01-20T13:09:08.415Z,10.05
2023-01-20T13:11:50.932Z,10.95
2023-01-20T13:14:26.127Z,9.02
2023-01-20T13:17:02.409Z,9.02
2023-01-20T13:19:34.368Z,10.43
2023-01-20T13:22:12.010Z,10.10
2023-01-20T13:24:45.006Z,9.45
2023-01-20T13:27:15.292Z,9.13
2023-01-20T13:29:55.354Z,8.07
2023-01-20T13:32:29.676Z,9.27
2023-01-20T13:34:59.384Z,9.35
2023-01-20T13:37:32.180Z,7.90
2023-01-20T13:40:01.221Z,8.25
2023-01-20T13:42:50.355Z,7.55
2023-01-20T13:45:27.121Z,8.13
2023-01-20T13:48:22.400Z,8.10
2023-01-20T13:53:30.018Z,6.82
2023-01-20T13:56:26.427Z,6.78
2023-01-20T13:58:58.211Z,7.20
2023-01-20T14:01:27.545Z,7.88
2023-01-20T14:04:15.998Z,7.00
2023-01-20T14:06:47.187Z,6.43
2023-01-20T14:09:22.088Z,7.97
2023-01-20T14:11:51.516Z,6.95
2023-01-20T14:14:21.610Z,6.85
2023-01-20T14:16:50.649Z,6.95
2023-01-20T14:19:23.507Z,7.05
2023-01-20T14:21:54.354Z,8.45
2023-01-20T14:24:29.950Z,7.50
2023-01-20T14:27:09.210Z,7.70
2023-01-20T14:29:38.791Z,8.30
2023-01-20T14:32:21.156Z,7.28
2023-01-20T14:34:51.379Z,7.65
2023-01-20T14:37:27.421Z,7.38
2023-01-20T14:40:02.495Z,7.75
2023-01-20T14:42:31.290Z,7.00
2023-01-20T14:44:59.688Z,8.25
2023-01-20T14:47:28.660Z,8.15
2023-01-20T14:49:58.436Z,6.90
2023-01-20T14:52:29.882Z,7.78
2023-01-20T14:54:58.753Z,7.57
2023-01-20T14:57:31.039Z,8.00
2023-01-20T15:00:14.979Z,6.75
2023-01-20T15:02:45.830Z,7.70
2023-01-20T15:05:27.843Z,7.65
2023-01-20T15:08:23.722Z,7.30
2023-01-20T15:11:29.140Z,7.80
2023-01-20T15:14:10.286Z,7.32
2023-01-20T15:16:49.698Z,6.75
2023-01-20T15:19:35.912Z,7.43
2023-01-20T15:22:22.911Z,7.45
2023-01-20T15:24:51.963Z,7.32
2023-01-20T15:27:30.584Z,6.93
2023-01-20T15:30:14.224Z,6.90
2023-01-20T15:32:42.982Z,6.95
2023-01-20T15:35:14.678Z,7.05
2023-01-20T15:37:43.880Z,6.97
2023-01-20T15:40:20.858Z,6.80
2023-01-20T15:42:50.299Z,6.70
2023-01-20T15:45:20.605Z,7.13
2023-01-20T15:47:49.872Z,8.02
2023-01-20T15:50:21.698Z,7.15
2023-01-20T15:52:50.356Z,7.15
2023-01-20T15:55:20.841Z,6.90
2023-01-20T15:57:53.026Z,5.65
2023-01-20T16:00:25.054Z,5.88
2023-01-20T16:02:53.512Z,6.50
2023-01-20T16:05:22.261Z,6.45
2023-01-20T16:07:50.610Z,5.13
2023-01-20T16:10:20.645Z,4.53
2023-01-20T16:12:49.457Z,5.35
2023-01-20T16:15:19.191Z,4.85
2023-01-20T16:17:51.036Z,4.93
2023-01-20T16:22:51.801Z,4.72
2023-01-20T16:25:20.175Z,4.85
2023-01-20T16:27:48.612Z,4.82
2023-01-20T16:30:18.466Z,4.32
2023-01-20T16:32:48.703Z,4.55
2023-01-20T16:35:18.974Z,4.70
2023-01-20T16:37:48.569Z,4.82
2023-01-20T16:40:19.956Z,4.68
2023-01-20T16:42:48.798Z,4.88
2023-01-20T16:45:24.231Z,4.82
2023-01-20T16:47:54.558Z,4.28
2023-01-20T16:50:23.311Z,4.97
2023-01-20T16:52:51.740Z,4.43
2023-01-20T16:55:20.323Z,4.60
2023-01-20T16:57:48.690Z,4.55
2023-01-20T17:00:19.428Z,4.65
2023-01-20T17:02:51.451Z,5.07
2023-01-20T17:05:25.772Z,5.10
2023-01-20T17:07:56.968Z,6.20
2023-01-20T17:10:27.740Z,19.38
2023-01-20T17:12:56.824Z,22.00
2023-01-20T17:15:26.638Z,18.88
2023-01-20T17:17:58.309Z,6.80
2023-01-20T17:20:28.732Z,6.55
2023-01-20T17:22:57.254Z,6.65
2023-01-20T17:25:26.074Z,6.18
2023-01-20T17:27:54.369Z,15.10
2023-01-20T17:30:25.935Z,7.22
2023-01-20T17:32:54.807Z,7.28
2023-01-20T17:35:23.553Z,6.47
2023-01-20T17:37:53.371Z,8.57
2023-01-20T17:40:22.058Z,6.22
2023-01-20T17:42:53.807Z,8.52
2023-01-20T17:47:52.096Z,7.65
2023-01-20T17:50:20.835Z,6.93
2023-01-20T17:52:49.636Z,7.82
2023-01-20T17:55:19.498Z,11.25
2023-01-20T17:57:48.083Z,6.78
2023-01-20T18:00:18.898Z,6.22
2023-01-20T18:02:48.061Z,7.10
2023-01-20T18:05:16.486Z,7.50
2023-01-20T18:07:45.008Z,6.57
2023-01-20T18:10:13.730Z,6.10
2023-01-20T18:12:45.222Z,5.50
2023-01-20T18:15:13.609Z,5.75
2023-01-20T18:17:43.580Z,6.72
2023-01-20T18:20:15.366Z,6.32
2023-01-20T18:22:48.973Z,6.57
2023-01-20T18:25:17.808Z,6.00
2023-01-20T18:27:47.856Z,5.50
2023-01-20T18:30:17.313Z,5.50
2023-01-20T18:32:46.417Z,6.03
2023-01-20T18:35:14.820Z,5.68
2023-01-20T18:37:43.328Z,5.40
2023-01-20T18:40:13.196Z,4.97
2023-01-20T18:42:45.158Z,5.03
2023-01-20T18:45:15.249Z,5.28
2023-01-20T18:47:43.716Z,5.20
2023-01-20T18:50:12.976Z,5.40
2023-01-20T18:52:41.643Z,6.38
2023-01-20T18:55:11.986Z,9.70
2023-01-20T18:57:40.886Z,6.35
2023-01-20T19:00:10.477Z,7.65
2023-01-20T19:02:40.613Z,6.57
2023-01-20T19:05:09.914Z,5.25
2023-01-20T19:07:38.541Z,6.78
2023-01-20T19:10:07.706Z,6.88
2023-01-20T19:12:36.174Z,7.05
2023-01-20T19:15:05.085Z,8.13
2023-01-20T19:17:35.371Z,6.50
2023-01-20T19:20:07.342Z,5.60
2023-01-20T19:22:35.783Z,6.07
2023-01-20T19:25:05.378Z,5.95
2023-01-20T19:27:33.718Z,6.70
2023-01-20T19:30:02.608Z,6.82
2023-01-20T19:32:31.069Z,6.47
2023-01-20T19:34:59.591Z,6.35
2023-01-20T19:37:29.631Z,7.10
2023-01-20T19:39:57.909Z,6.90
2023-01-20T19:42:26.388Z,6.03
2023-01-20T19:44:55.176Z,6.35
2023-01-20T19:47:23.619Z,6.10
2023-01-20T19:49:52.365Z,6.03
2023-01-20T19:52:20.692Z,6.40
2023-01-20T19:54:51.780Z,5.85
2023-01-20T19:57:20.485Z,6.00
2023-01-20T19:59:48.968Z,6.63
2023-01-20T20:02:17.868Z,6.53
2023-01-20T20:04:46.558Z,7.05
2023-01-20T20:07:15.079Z,7.22
2023-01-20T20:09:43.751Z,12.85
2023-01-20T20:12:13.764Z,7.45
2023-01-20T20:14:43.710Z,7.97
2023-01-20T20:17:15.279Z,6.60
2023-01-20T20:19:44.796Z,6.63
2023-01-20T20:22:13.938Z,6.03
2023-01-20T20:24:42.791Z,6.38
2023-01-20T20:27:12.647Z,6.80
2023-01-20T20:29:44.744Z,7.35
2023-01-20T20:32:15.202Z,8.43
2023-01-20T20:34:44.339Z,8.18
2023-01-20T20:37:14.421Z,7.15
2023-01-20T20:39:43.967Z,7.13
2023-01-20T20:42:14.286Z,7.03
2023-01-20T20:44:44.958Z,6.57
2023-01-20T20:47:13.529Z,7.10
2023-01-20T20:49:42.459Z,5.80
2023-01-20T20:52:10.969Z,5.55
2023-01-20T20:54:39.530Z,5.07
2023-01-20T20:57:08.957Z,4.75
2023-01-20T20:59:47.260Z,4.88
2023-01-20T21:02:27.634Z,4.65
2023-01-20T21:04:57.230Z,4.22
2023-01-20T21:07:25.571Z,3.58
2023-01-20T21:09:54.925Z,4.25
2023-01-20T21:12:23.283Z,3.63
2023-01-20T21:14:52.761Z,4.18
2023-01-20T21:17:21.315Z,3.22
2023-01-20T21:19:52.451Z,3.75
2023-01-20T21:22:21.252Z,3.08
2023-01-20T21:24:49.920Z,3.90
2023-01-20T21:27:18.703Z,3.03
2023-01-20T21:29:47.193Z,4.03
2023-01-20T21:32:15.956Z,3.55
2023-01-20T21:34:44.362Z,3.83
2023-01-20T21:37:14.281Z,4.43
2023-01-20T21:39:42.773Z,4.10
2023-01-20T21:42:11.333Z,4.25
2023-01-20T21:44:42.556Z,4.15
2023-01-20T21:47:11.823Z,4.13
2023-01-20T21:49:57.808Z,4.60
2023-01-20T21:52:42.951Z,4.20
2023-01-20T21:55:13.773Z,4.43
2023-01-20T21:57:42.734Z,5.10
2023-01-20T22:00:15.576Z,4.38
2023-01-20T22:02:45.936Z,4.65
2023-01-20T22:05:15.529Z,4.40
2023-01-20T22:07:47.978Z,5.25
2023-01-20T22:10:16.741Z,5.38
2023-01-20T22:12:45.412Z,4.93
2023-01-20T22:15:13.931Z,5.05
2023-01-20T22:17:43.065Z,5.35
2023-01-20T22:20:12.738Z,4.65
2023-01-20T22:22:41.125Z,4.75
2023-01-20T22:25:11.381Z,5.30
2023-01-20T22:27:40.031Z,5.25
2023-01-20T22:30:09.534Z,6.38
2023-01-20T22:32:37.965Z,4.68
2023-01-20T22:35:07.140Z,5.75
2023-01-20T22:37:35.753Z,5.18
2023-01-20T22:40:05.295Z,6.05
2023-01-20T22:42:35.332Z,5.40
2023-01-20T22:45:03.835Z,4.78
2023-01-20T22:47:32.435Z,4.45
2023-01-20T22:50:00.853Z,4.43
2023-01-20T22:52:30.574Z,4.88
2023-01-20T22:54:58.992Z,4.15
2023-01-20T22:57:27.452Z,4.00
2023-01-20T22:59:57.322Z,4.28
2023-01-20T23:02:25.984Z,4.07
2023-01-20T23:04:54.552Z,3.75
2023-01-20T23:07:22.967Z,4.47
2023-01-20T23:09:51.319Z,3.63
2023-01-20T23:12:20.023Z,3.25
2023-01-20T23:15:00.274Z,3.60
2023-01-20T23:17:33.172Z,3.15
2023-01-20T23:20:01.814Z,3.50
2023-01-20T23:22:30.893Z,3.20
2023-01-20T23:25:01.533Z,3.40
2023-01-20T23:27:31.827Z,3.13
2023-01-20T23:30:01.551Z,3.45
2023-01-20T23:32:31.333Z,3.38
2023-01-20T23:35:02.014Z,3.47
2023-01-20T23:37:30.511Z,3.83
2023-01-20T23:40:00.568Z,3.25
2023-01-20T23:42:29.693Z,3.20
2023-01-20T23:44:58.339Z,3.72
2023-01-20T23:47:26.758Z,3.70
2023-01-20T23:49:56.572Z,3.85
2023-01-20T23:52:26.096Z,3.22
2023-01-20T23:54:55.852Z,3.90
2023-01-20T23:57:26.342Z,3.33
2023-01-20T23:59:56.588Z,3.50
